< < Back
Terminal Aerodrome Forecast


Current Version              Previous Versions:   1  2  3  4  5  6  7  8  9  

Terminal Aerodrome Forecast

954
FTUS44 KBMX 302019 AAA
TAFANB
TAF AMD
KANB 302019Z 3020/3118 36008KT P6SM VCTS SCT050CB
     FM310000 02006KT P6SM SKC=

Latest METAR

206
SAUS70 KWBC 311300 RRI
MTRANB
METAR KANB 311253Z AUTO 01007KT 10SM CLR 24/17 A3002 RMK AO2 SLP153
T02440167


USA.gov is the U.S. government's official web portal to all federal, state and local government web resources and services.